createdAt,value
2019-02-15T00:01:45.425Z,22.32
2019-02-15T00:04:15.888Z,20.77
2019-02-15T00:06:46.638Z,21.23
2019-02-15T00:09:17.088Z,21.97
2019-02-15T00:11:47.840Z,21.55
2019-02-15T00:14:18.394Z,21.20
2019-02-15T00:16:48.841Z,20.97
2019-02-15T00:19:39.722Z,21.97
2019-02-15T00:22:10.786Z,21.63
2019-02-15T00:24:41.260Z,23.92
2019-02-15T00:27:11.720Z,21.50
2019-02-15T00:29:42.467Z,23.40
2019-02-15T00:32:13.416Z,22.35
2019-02-15T00:34:43.894Z,23.12
2019-02-15T00:37:14.740Z,24.17
2019-02-15T00:39:45.208Z,21.80
2019-02-15T00:42:15.685Z,24.20
2019-02-15T00:44:46.168Z,22.13
2019-02-15T00:47:35.892Z,20.40
2019-02-15T00:50:14.838Z,22.87
2019-02-15T00:53:22.825Z,22.40
2019-02-15T00:56:04.020Z,22.70
2019-02-15T00:58:52.250Z,24.47
2019-02-15T01:01:42.357Z,22.30
2019-02-15T01:04:18.941Z,23.53
2019-02-15T01:07:14.329Z,23.33
2019-02-15T01:10:06.854Z,25.60
2019-02-15T01:13:00.795Z,23.05
2019-02-15T01:15:31.256Z,22.30
2019-02-15T01:18:01.821Z,21.93
2019-02-15T01:20:32.341Z,25.02
2019-02-15T01:23:03.111Z,25.65
2019-02-15T01:25:40.814Z,26.25
2019-02-15T01:28:45.713Z,22.77
2019-02-15T01:31:30.362Z,24.30
2019-02-15T01:34:32.262Z,22.10
2019-02-15T01:37:12.184Z,21.60
2019-02-15T01:39:59.756Z,21.62
2019-02-15T01:42:49.248Z,21.33
2019-02-15T01:45:32.957Z,22.05
2019-02-15T01:48:03.788Z,23.05
2019-02-15T01:50:34.270Z,23.93
2019-02-15T01:53:05.095Z,24.82
2019-02-15T01:55:35.845Z,25.30
2019-02-15T01:58:06.280Z,23.05
2019-02-15T02:00:36.917Z,23.40
2019-02-15T02:03:07.393Z,23.57
2019-02-15T02:05:37.920Z,21.83
2019-02-15T02:08:10.060Z,22.37
2019-02-15T02:10:40.609Z,23.03
2019-02-15T02:13:11.080Z,23.00
2019-02-15T02:15:41.526Z,24.07
2019-02-15T02:18:11.991Z,23.35
2019-02-15T02:20:42.429Z,23.77
2019-02-15T02:23:12.893Z,23.05
2019-02-15T02:25:43.341Z,22.48
2019-02-15T02:28:13.833Z,22.17
2019-02-15T02:30:44.296Z,21.47
2019-02-15T02:33:15.139Z,23.47
2019-02-15T02:35:45.587Z,23.02
2019-02-15T02:38:16.038Z,22.10
2019-02-15T02:40:46.505Z,22.90
2019-02-15T02:43:16.951Z,22.90
2019-02-15T02:45:47.396Z,21.83
2019-02-15T02:48:17.865Z,21.75
2019-02-15T02:50:48.332Z,25.17
2019-02-15T02:53:18.977Z,23.25
2019-02-15T02:55:49.429Z,21.90
2019-02-15T02:58:20.176Z,23.32
2019-02-15T03:00:50.638Z,20.50
2019-02-15T03:03:21.341Z,21.48
2019-02-15T03:05:52.116Z,23.07
2019-02-15T03:08:22.581Z,23.15
2019-02-15T03:10:53.016Z,22.00
2019-02-15T03:13:23.458Z,23.67
2019-02-15T03:15:54.237Z,23.87
2019-02-15T03:18:25.524Z,23.87
2019-02-15T03:20:55.972Z,24.47
2019-02-15T03:23:26.693Z,25.37
2019-02-15T03:25:57.146Z,23.07
2019-02-15T03:28:27.919Z,22.13
2019-02-15T03:30:58.402Z,21.93
2019-02-15T03:33:28.851Z,24.73
2019-02-15T03:36:02.291Z,23.87
2019-02-15T03:38:46.718Z,22.95
2019-02-15T03:41:27.598Z,25.02
2019-02-15T03:43:58.056Z,21.87
2019-02-15T03:46:28.497Z,21.70
2019-02-15T03:48:58.947Z,23.20
2019-02-15T03:51:29.371Z,25.90
2019-02-15T03:54:00.172Z,23.00
2019-02-15T03:56:30.687Z,19.95
2019-02-15T03:59:01.118Z,21.97
2019-02-15T04:01:31.562Z,21.80
2019-02-15T04:04:02.001Z,21.70
2019-02-15T04:06:32.493Z,20.52
2019-02-15T04:09:04.365Z,25.55
2019-02-15T04:11:34.820Z,23.40
2019-02-15T04:14:05.606Z,23.52
2019-02-15T04:16:36.110Z,21.70
2019-02-15T04:19:06.959Z,22.80
2019-02-15T04:21:37.368Z,23.17
2019-02-15T04:24:07.889Z,24.57
2019-02-15T04:26:38.333Z,23.18
2019-02-15T04:29:08.781Z,25.90
2019-02-15T04:31:39.231Z,26.30
2019-02-15T04:34:10.330Z,27.10
2019-02-15T04:36:40.752Z,26.35
2019-02-15T04:39:11.198Z,24.57
2019-02-15T04:41:41.628Z,24.27
2019-02-15T04:44:12.098Z,24.73
2019-02-15T04:46:42.561Z,22.67
2019-02-15T04:49:13.011Z,24.10
2019-02-15T04:51:43.461Z,23.90
2019-02-15T04:54:13.906Z,24.10
2019-02-15T04:56:44.711Z,25.75
2019-02-15T04:59:15.182Z,27.10
2019-02-15T05:01:45.632Z,22.70
2019-02-15T05:04:16.509Z,26.05
2019-02-15T05:06:47.008Z,24.87
2019-02-15T05:09:17.469Z,26.43
2019-02-15T05:11:47.914Z,26.07
2019-02-15T05:14:18.440Z,23.50
2019-02-15T05:16:48.889Z,25.63
2019-02-15T05:19:19.424Z,22.60
2019-02-15T05:21:50.155Z,24.57
2019-02-15T05:24:20.629Z,27.50
2019-02-15T05:26:51.627Z,26.47
2019-02-15T05:29:22.415Z,24.30
2019-02-15T05:31:52.880Z,22.70
2019-02-15T05:34:23.346Z,24.87
2019-02-15T05:36:53.809Z,24.80
2019-02-15T05:39:24.511Z,23.42
2019-02-15T05:41:54.966Z,25.27
2019-02-15T05:44:25.420Z,25.95
2019-02-15T05:46:55.926Z,23.60
2019-02-15T05:49:26.725Z,23.65
2019-02-15T05:51:57.185Z,27.13
2019-02-15T05:54:27.727Z,23.90
2019-02-15T05:56:58.486Z,24.30
2019-02-15T05:59:28.960Z,22.30
2019-02-15T06:01:59.409Z,23.93
2019-02-15T06:04:29.872Z,21.95
2019-02-15T06:07:00.594Z,25.13
2019-02-15T06:09:31.175Z,24.17
2019-02-15T06:12:01.606Z,26.50
2019-02-15T06:14:32.110Z,24.92
2019-02-15T06:17:02.590Z,27.03
2019-02-15T06:19:33.111Z,25.87
2019-02-15T06:22:03.555Z,24.57
2019-02-15T06:24:34.047Z,23.73
2019-02-15T06:27:04.507Z,26.93
2019-02-15T06:29:34.981Z,24.00
2019-02-15T06:32:05.430Z,23.22
2019-02-15T06:34:36.193Z,26.20
2019-02-15T06:37:06.660Z,24.00
2019-02-15T06:39:37.160Z,24.57
2019-02-15T06:42:07.620Z,21.57
2019-02-15T06:44:38.357Z,24.50
2019-02-15T06:47:08.800Z,24.17
2019-02-15T06:49:39.633Z,23.02
2019-02-15T06:52:10.091Z,26.63
2019-02-15T06:54:40.940Z,23.87
2019-02-15T06:57:11.388Z,25.60
2019-02-15T07:00:01.723Z,27.97
2019-02-15T07:02:36.981Z,26.25
2019-02-15T07:05:21.169Z,27.87
2019-02-15T07:07:51.940Z,29.15
2019-02-15T07:10:22.410Z,33.73
2019-02-15T07:12:52.856Z,27.93
2019-02-15T07:15:23.405Z,27.53
2019-02-15T07:17:53.857Z,27.45
2019-02-15T07:20:24.329Z,25.43
2019-02-15T07:22:54.891Z,26.90
2019-02-15T07:25:26.260Z,25.00
2019-02-15T07:27:57.077Z,29.80
2019-02-15T07:30:27.561Z,29.80
2019-02-15T07:32:58.589Z,27.10
2019-02-15T07:35:29.049Z,26.27
2019-02-15T07:37:59.494Z,37.37
2019-02-15T07:40:29.936Z,50.45
2019-02-15T07:43:00.381Z,36.53
2019-02-15T07:45:31.196Z,32.42
2019-02-15T07:48:02.962Z,32.33
2019-02-15T07:50:33.799Z,32.38
2019-02-15T07:53:04.272Z,29.87
2019-02-15T07:55:34.721Z,31.00
2019-02-15T07:58:05.167Z,30.27
2019-02-15T08:00:35.631Z,31.27
2019-02-15T08:03:06.088Z,30.00
2019-02-15T08:05:36.542Z,29.60
2019-02-15T08:08:07.027Z,29.73
2019-02-15T08:10:39.424Z,28.80
2019-02-15T08:13:10.137Z,28.87
2019-02-15T08:15:40.909Z,28.50
2019-02-15T08:18:11.393Z,32.47
2019-02-15T08:20:41.861Z,31.62
2019-02-15T08:23:13.332Z,29.57
2019-02-15T08:25:44.138Z,33.70
2019-02-15T08:28:14.628Z,34.47
2019-02-15T08:30:45.103Z,34.40
2019-02-15T08:33:15.901Z,34.90
2019-02-15T08:35:46.367Z,33.23
2019-02-15T08:38:16.825Z,32.80
2019-02-15T08:40:47.274Z,34.18
2019-02-15T08:43:17.755Z,35.87
2019-02-15T08:45:48.193Z,36.68
2019-02-15T08:48:19.072Z,34.88
2019-02-15T08:50:49.568Z,33.93
2019-02-15T08:53:20.038Z,34.33
2019-02-15T08:55:50.830Z,33.80
2019-02-15T08:58:21.335Z,31.93
2019-02-15T09:00:51.805Z,31.67
2019-02-15T09:03:22.518Z,32.93
2019-02-15T09:05:52.968Z,34.53
2019-02-15T09:08:23.426Z,33.02
2019-02-15T09:10:54.182Z,32.67
2019-02-15T09:13:24.669Z,32.05
2019-02-15T09:15:55.399Z,31.68
2019-02-15T09:18:25.877Z,34.00
2019-02-15T09:23:31.913Z,32.55
2019-02-15T09:26:02.731Z,32.78
2019-02-15T09:28:37.686Z,31.53
2019-02-15T09:31:08.160Z,31.07
2019-02-15T09:33:38.627Z,31.75
2019-02-15T09:36:09.089Z,32.25
2019-02-15T09:38:39.547Z,30.77
2019-02-15T09:41:10.414Z,32.20
2019-02-15T09:43:40.929Z,32.00
2019-02-15T09:46:19.504Z,30.07
2019-02-15T09:48:43.878Z,28.57
2019-02-15T09:51:14.622Z,28.52
2019-02-15T09:53:45.370Z,25.20
2019-02-15T09:56:15.832Z,25.32
2019-02-15T09:58:46.304Z,24.33
2019-02-15T10:01:16.767Z,27.00
2019-02-15T10:03:47.249Z,26.57
2019-02-15T10:06:17.717Z,25.13
2019-02-15T10:08:48.820Z,24.67
2019-02-15T10:11:19.279Z,25.92
2019-02-15T10:13:49.808Z,25.97
2019-02-15T10:16:28.249Z,27.00
2019-02-15T10:18:52.413Z,25.40
2019-02-15T10:21:22.907Z,24.67
2019-02-15T10:23:53.937Z,25.48
2019-02-15T10:26:24.410Z,25.37
2019-02-15T10:28:55.197Z,25.13
2019-02-15T10:31:26.316Z,24.12
2019-02-15T10:33:56.757Z,23.62
2019-02-15T10:36:27.475Z,24.27
2019-02-15T10:38:57.922Z,24.25
2019-02-15T10:41:28.706Z,23.30
2019-02-15T10:43:59.211Z,23.87
2019-02-15T10:46:37.604Z,23.27
2019-02-15T10:49:02.313Z,24.95
2019-02-15T10:51:32.783Z,23.47
2019-02-15T10:54:03.244Z,23.80
2019-02-15T10:56:33.723Z,23.33
2019-02-15T10:59:04.197Z,24.05
2019-02-15T11:01:34.642Z,24.83
2019-02-15T11:04:05.117Z,24.92
2019-02-15T11:06:35.950Z,24.20
2019-02-15T11:09:11.282Z,24.98
2019-02-15T11:11:41.760Z,24.93
2019-02-15T11:14:12.297Z,25.70
2019-02-15T11:16:47.216Z,25.43
2019-02-15T11:19:15.389Z,26.50
2019-02-15T11:21:45.845Z,25.43
2019-02-15T11:24:16.680Z,25.60
2019-02-15T11:26:47.138Z,26.15
2019-02-15T11:29:17.626Z,26.85
2019-02-15T11:31:48.087Z,25.60
2019-02-15T11:34:18.563Z,27.07
2019-02-15T11:36:49.389Z,27.00
2019-02-15T11:39:20.299Z,26.02
2019-02-15T11:41:50.755Z,26.83
2019-02-15T11:44:21.301Z,26.97
2019-02-15T11:46:56.736Z,23.83
2019-02-15T11:49:24.322Z,23.80
2019-02-15T11:51:54.785Z,24.43
2019-02-15T11:54:25.332Z,23.20
2019-02-15T11:56:55.816Z,24.17
2019-02-15T11:59:26.296Z,23.87
2019-02-15T12:02:05.485Z,23.97
2019-02-15T12:04:29.013Z,23.30
2019-02-15T12:06:59.526Z,23.97
2019-02-15T12:09:29.992Z,23.93
2019-02-15T12:12:00.501Z,24.70
2019-02-15T12:14:31.037Z,24.33
2019-02-15T12:17:05.581Z,23.47
2019-02-15T12:19:34.670Z,25.17
2019-02-15T12:22:05.154Z,24.53
2019-02-15T12:24:35.621Z,25.23
2019-02-15T12:27:06.416Z,25.60
2019-02-15T12:29:36.989Z,25.08
2019-02-15T12:32:07.493Z,24.82
2019-02-15T12:34:37.987Z,25.17
2019-02-15T12:37:08.501Z,25.25
2019-02-15T12:39:38.966Z,25.43
2019-02-15T12:42:11.041Z,24.45
2019-02-15T12:44:41.543Z,24.07
2019-02-15T12:47:15.092Z,24.72
2019-02-15T12:49:44.905Z,23.15
2019-02-15T12:52:15.425Z,23.80
2019-02-15T12:54:46.355Z,23.67
2019-02-15T12:57:16.848Z,23.30
2019-02-15T12:59:47.338Z,21.03
2019-02-15T13:02:17.905Z,20.87
2019-02-15T13:04:48.382Z,19.63
2019-02-15T13:07:19.016Z,19.62
2019-02-15T13:09:51.957Z,21.25
2019-02-15T13:12:22.286Z,19.97
2019-02-15T13:14:52.818Z,20.72
2019-02-15T13:17:25.012Z,21.37
2019-02-15T13:19:55.723Z,20.50
2019-02-15T13:22:26.192Z,21.70
2019-02-15T13:24:56.950Z,23.42
2019-02-15T13:27:27.739Z,24.30
2019-02-15T13:29:58.561Z,25.07
2019-02-15T13:32:29.063Z,25.10
2019-02-15T13:34:59.997Z,24.67
2019-02-15T13:37:31.439Z,25.53
2019-02-15T13:40:02.293Z,26.12
2019-02-15T13:42:32.954Z,22.85
2019-02-15T13:47:51.865Z,22.73
2019-02-15T13:50:22.415Z,22.83
2019-02-15T13:52:52.943Z,24.40
2019-02-15T13:55:23.537Z,23.50
2019-02-15T13:57:54.108Z,23.50
2019-02-15T14:00:24.663Z,23.23
2019-02-15T14:02:55.133Z,25.65
2019-02-15T14:05:25.707Z,26.23
2019-02-15T14:07:57.278Z,25.90
2019-02-15T14:10:28.104Z,26.43
2019-02-15T14:12:58.653Z,27.53
2019-02-15T14:15:29.191Z,26.52
2019-02-15T14:17:59.690Z,25.60
2019-02-15T14:20:30.656Z,26.12
2019-02-15T14:23:01.157Z,25.37
2019-02-15T14:25:31.658Z,25.57
2019-02-15T14:28:02.161Z,26.02
2019-02-15T14:30:32.655Z,25.62
2019-02-15T14:33:03.159Z,25.25
2019-02-15T14:35:34.089Z,24.52
2019-02-15T14:38:04.837Z,24.80
2019-02-15T14:40:35.873Z,24.95
2019-02-15T14:43:06.370Z,24.82
2019-02-15T14:45:36.850Z,23.15
2019-02-15T14:48:07.641Z,22.33
2019-02-15T14:50:38.109Z,22.13
2019-02-15T14:53:08.610Z,22.50
2019-02-15T14:55:39.069Z,21.83
2019-02-15T14:58:09.568Z,21.17
2019-02-15T15:00:40.085Z,21.35
2019-02-15T15:03:10.613Z,20.70
2019-02-15T15:05:41.277Z,21.02
2019-02-15T15:08:11.796Z,20.77
2019-02-15T15:10:42.255Z,20.17
2019-02-15T15:13:12.793Z,20.37
2019-02-15T15:15:43.264Z,21.33
2019-02-15T15:18:13.779Z,21.00
2019-02-15T15:20:44.515Z,19.87
2019-02-15T15:23:16.157Z,20.60
2019-02-15T15:25:46.702Z,19.57
2019-02-15T15:28:17.164Z,19.73
2019-02-15T15:30:47.652Z,19.50
2019-02-15T15:33:18.550Z,19.50
2019-02-15T15:35:49.747Z,18.93
2019-02-15T15:38:20.289Z,19.65
2019-02-15T15:40:50.737Z,19.23
2019-02-15T15:43:21.263Z,18.57
2019-02-15T15:45:51.756Z,19.23
2019-02-15T15:48:23.084Z,20.63
2019-02-15T15:50:53.732Z,18.75
2019-02-15T15:53:24.188Z,18.50
2019-02-15T15:55:54.950Z,18.00
2019-02-15T15:58:25.775Z,19.00
2019-02-15T16:00:56.243Z,18.17
2019-02-15T16:03:26.740Z,19.45
2019-02-15T16:05:57.200Z,19.13
2019-02-15T16:08:27.711Z,18.32
2019-02-15T16:10:58.482Z,19.70
2019-02-15T16:13:28.989Z,19.33
2019-02-15T16:15:59.548Z,19.17
2019-02-15T16:18:34.227Z,18.73
2019-02-15T16:21:02.184Z,18.37
2019-02-15T16:23:32.981Z,16.93
2019-02-15T16:26:03.464Z,18.48
2019-02-15T16:28:34.393Z,17.98
2019-02-15T16:31:05.165Z,18.90
2019-02-15T16:33:35.617Z,18.97
2019-02-15T16:36:06.114Z,19.48
2019-02-15T16:38:37.447Z,19.05
2019-02-15T16:41:07.939Z,18.53
2019-02-15T16:43:38.417Z,19.20
2019-02-15T16:46:10.270Z,18.52
2019-02-15T16:48:42.300Z,18.40
2019-02-15T16:51:12.949Z,18.13
2019-02-15T16:53:43.801Z,18.73
2019-02-15T16:56:14.314Z,18.07
2019-02-15T16:58:45.222Z,17.87
2019-02-15T17:01:15.696Z,17.50
2019-02-15T17:03:46.171Z,18.83
2019-02-15T17:06:16.638Z,18.20
2019-02-15T17:08:47.107Z,18.00
2019-02-15T17:11:17.607Z,19.57
2019-02-15T17:13:48.100Z,18.25
2019-02-15T17:16:18.558Z,19.62
2019-02-15T17:18:51.744Z,21.37
2019-02-15T17:21:21.237Z,21.27
2019-02-15T17:23:51.737Z,21.65
2019-02-15T17:26:22.217Z,19.90
2019-02-15T17:28:52.953Z,19.53
2019-02-15T17:31:23.468Z,18.90
2019-02-15T17:33:54.287Z,20.23
2019-02-15T17:36:24.841Z,19.93
2019-02-15T17:38:55.612Z,19.50
2019-02-15T17:41:26.064Z,19.43
2019-02-15T17:43:56.550Z,19.57
2019-02-15T17:46:27.038Z,19.27
2019-02-15T17:49:00.688Z,20.17
2019-02-15T17:51:29.638Z,19.67
2019-02-15T17:54:00.163Z,19.97
2019-02-15T17:56:31.054Z,19.75
2019-02-15T17:59:01.548Z,19.70
2019-02-15T18:01:32.782Z,19.00
2019-02-15T18:04:03.933Z,18.67
2019-02-15T18:06:34.408Z,19.77
2019-02-15T18:09:06.437Z,19.12
2019-02-15T18:11:36.908Z,18.98
2019-02-15T18:14:07.382Z,19.03
2019-02-15T18:16:37.833Z,19.85
2019-02-15T18:19:10.038Z,21.25
2019-02-15T18:21:40.540Z,20.87
2019-02-15T18:24:11.010Z,20.43
2019-02-15T18:26:41.506Z,21.80
2019-02-15T18:29:11.993Z,22.13
2019-02-15T18:31:42.545Z,20.65
2019-02-15T18:34:13.024Z,20.57
2019-02-15T18:36:43.524Z,19.82
2019-02-15T18:39:14.048Z,19.80
2019-02-15T18:41:44.925Z,20.40
2019-02-15T18:44:15.464Z,20.72
2019-02-15T18:46:45.969Z,19.40
2019-02-15T18:49:19.366Z,18.62
2019-02-15T18:51:48.684Z,20.35
2019-02-15T18:54:19.593Z,20.23
2019-02-15T18:56:50.059Z,20.35
2019-02-15T18:59:20.568Z,19.27
2019-02-15T19:01:51.173Z,19.97
2019-02-15T19:04:21.658Z,20.70
2019-02-15T19:06:52.153Z,21.27
2019-02-15T19:09:22.648Z,21.00
2019-02-15T19:11:53.481Z,20.27
2019-02-15T19:14:23.985Z,21.40
2019-02-15T19:16:54.452Z,20.63
2019-02-15T19:19:29.156Z,20.70
2019-02-15T19:21:57.110Z,22.07
2019-02-15T19:24:27.582Z,21.33
2019-02-15T19:26:59.504Z,20.80
2019-02-15T19:29:31.993Z,20.67
2019-02-15T19:32:03.008Z,19.85
2019-02-15T19:34:33.477Z,20.80
2019-02-15T19:37:03.965Z,21.25
2019-02-15T19:39:34.434Z,22.23
2019-02-15T19:42:09.633Z,21.53
2019-02-15T19:44:40.493Z,23.18
2019-02-15T19:47:11.018Z,22.43
2019-02-15T19:49:41.507Z,22.60
2019-02-15T19:52:12.001Z,22.30
2019-02-15T19:54:42.486Z,22.58
2019-02-15T19:57:13.277Z,24.02
2019-02-15T19:59:53.203Z,22.33
2019-02-15T20:02:16.395Z,23.07
2019-02-15T20:04:48.149Z,23.60
2019-02-15T20:07:18.708Z,25.30
2019-02-15T20:09:49.434Z,22.97
2019-02-15T20:12:20.073Z,25.23
2019-02-15T20:14:50.604Z,24.00
2019-02-15T20:17:21.065Z,24.57
2019-02-15T20:19:51.546Z,24.00
2019-02-15T20:22:22.000Z,23.67
2019-02-15T20:24:52.497Z,24.43
2019-02-15T20:27:22.946Z,25.45
2019-02-15T20:29:53.406Z,25.80
2019-02-15T20:32:24.215Z,25.27
2019-02-15T20:34:54.680Z,26.07
2019-02-15T20:37:25.129Z,27.33
2019-02-15T20:39:55.606Z,26.83
2019-02-15T20:42:26.101Z,27.30
2019-02-15T20:44:56.601Z,25.43
2019-02-15T20:47:27.442Z,26.35
2019-02-15T20:49:58.380Z,26.50
2019-02-15T20:52:30.091Z,27.80
2019-02-15T20:55:00.549Z,27.30
2019-02-15T20:57:30.998Z,25.92
2019-02-15T21:00:01.483Z,25.10
2019-02-15T21:02:31.949Z,25.77
2019-02-15T21:05:02.430Z,27.10
2019-02-15T21:07:32.914Z,26.63
2019-02-15T21:10:03.422Z,28.23
2019-02-15T21:12:34.251Z,23.43
2019-02-15T21:15:04.846Z,25.57
2019-02-15T21:17:36.302Z,23.90
2019-02-15T21:20:08.330Z,23.85
2019-02-15T21:22:39.300Z,24.23
2019-02-15T21:25:11.743Z,25.00
2019-02-15T21:27:42.212Z,28.55
2019-02-15T21:30:13.833Z,24.70
2019-02-15T21:32:44.381Z,24.87
2019-02-15T21:35:15.355Z,25.97
2019-02-15T21:37:46.927Z,29.25
2019-02-15T21:40:17.441Z,26.53
2019-02-15T21:42:47.910Z,27.35
2019-02-15T21:45:18.387Z,25.77
2019-02-15T21:47:48.853Z,28.20
2019-02-15T21:50:19.324Z,25.90
2019-02-15T21:52:49.769Z,25.88
2019-02-15T21:55:20.249Z,25.50
2019-02-15T21:57:51.132Z,29.23
2019-02-15T22:00:21.743Z,26.95
2019-02-15T22:02:52.208Z,28.27
2019-02-15T22:05:22.673Z,32.00
2019-02-15T22:07:53.405Z,29.37
2019-02-15T22:10:23.868Z,27.87
2019-02-15T22:12:54.712Z,28.33
2019-02-15T22:15:25.193Z,28.42
2019-02-15T22:17:55.696Z,27.98
2019-02-15T22:20:27.109Z,27.58
2019-02-15T22:22:58.035Z,29.90
2019-02-15T22:25:28.814Z,30.10
2019-02-15T22:27:59.274Z,25.30
2019-02-15T22:30:30.057Z,26.48
2019-02-15T22:33:00.541Z,26.87
2019-02-15T22:35:31.017Z,23.95
2019-02-15T22:38:01.844Z,27.10
2019-02-15T22:40:43.330Z,28.40
2019-02-15T22:43:22.001Z,28.30
2019-02-15T22:45:52.472Z,28.30
2019-02-15T22:48:22.992Z,27.40
2019-02-15T22:50:53.460Z,27.53
2019-02-15T22:53:24.297Z,27.90
2019-02-15T22:55:54.761Z,25.50
2019-02-15T22:58:25.267Z,26.68
2019-02-15T23:01:08.553Z,26.77
2019-02-15T23:03:39.126Z,29.15
2019-02-15T23:06:09.624Z,27.17
2019-02-15T23:08:40.107Z,24.67
2019-02-15T23:11:10.972Z,26.05
2019-02-15T23:13:41.453Z,25.92
2019-02-15T23:16:11.976Z,24.23
2019-02-15T23:18:42.732Z,24.20
2019-02-15T23:21:13.196Z,27.73
2019-02-15T23:23:44.026Z,26.93
2019-02-15T23:26:14.510Z,28.37
2019-02-15T23:28:45.024Z,24.47
2019-02-15T23:31:15.493Z,26.20
2019-02-15T23:33:46.336Z,25.92
2019-02-15T23:36:16.816Z,30.27
2019-02-15T23:38:47.658Z,26.68
2019-02-15T23:41:18.129Z,26.30
2019-02-15T23:43:48.628Z,25.72
2019-02-15T23:46:19.159Z,27.53
2019-02-15T23:48:49.688Z,27.80
2019-02-15T23:51:20.154Z,30.77
2019-02-15T23:53:50.674Z,24.52
2019-02-15T23:56:21.569Z,24.82
2019-02-15T23:58:52.423Z,23.92
